createdAt,value
2023-05-21T00:02:17.726Z,9.54
2023-05-21T00:04:45.574Z,9.52
2023-05-21T00:07:12.840Z,9.55
2023-05-21T00:09:39.834Z,9.57
2023-05-21T00:12:08.505Z,9.57
2023-05-21T00:14:35.573Z,9.57
2023-05-21T00:17:02.462Z,9.58
2023-05-21T00:19:29.328Z,9.59
2023-05-21T00:21:57.669Z,9.61
2023-05-21T00:24:24.507Z,9.63
2023-05-21T00:26:51.283Z,9.63
2023-05-21T00:29:18.174Z,9.65
2023-05-21T00:31:45.014Z,9.66
2023-05-21T00:34:14.168Z,9.69
2023-05-21T00:36:40.896Z,9.69
2023-05-21T00:39:08.922Z,9.70
2023-05-21T00:41:36.204Z,9.71
2023-05-21T00:44:03.117Z,9.77
2023-05-21T00:46:30.203Z,9.80
2023-05-21T00:48:58.233Z,9.83
2023-05-21T00:51:25.921Z,9.82
2023-05-21T00:53:54.466Z,9.80
2023-05-21T00:56:22.977Z,9.79
2023-05-21T00:58:54.177Z,9.80
2023-05-21T01:01:21.084Z,9.82
2023-05-21T01:03:48.854Z,9.82
2023-05-21T01:06:16.149Z,9.84
2023-05-21T01:08:44.168Z,9.85
2023-05-21T01:11:11.479Z,9.86
2023-05-21T01:13:41.392Z,9.89
2023-05-21T01:16:09.455Z,9.90
2023-05-21T01:18:37.784Z,9.90
2023-05-21T01:21:07.418Z,9.90
2023-05-21T01:23:34.473Z,9.89
2023-05-21T01:26:01.280Z,9.92
2023-05-21T01:28:29.844Z,9.93
2023-05-21T01:31:01.248Z,9.92
2023-05-21T01:33:47.466Z,9.97
2023-05-21T01:36:26.348Z,9.97
2023-05-21T01:39:15.614Z,10.03
2023-05-21T01:41:45.418Z,10.03
2023-05-21T01:44:14.000Z,10.03
2023-05-21T01:46:40.799Z,10.05
2023-05-21T01:49:10.062Z,10.07
2023-05-21T01:51:37.420Z,10.08
2023-05-21T01:54:04.181Z,10.11
2023-05-21T01:56:33.883Z,10.13
2023-05-21T01:59:00.825Z,10.16
2023-05-21T02:01:30.290Z,10.17
2023-05-21T02:03:58.215Z,10.18
2023-05-21T02:06:25.233Z,10.18
2023-05-21T02:08:52.155Z,10.19
2023-05-21T02:11:18.957Z,10.21
2023-05-21T02:13:46.180Z,10.22
2023-05-21T02:16:14.766Z,10.23
2023-05-21T02:18:44.485Z,10.30
2023-05-21T02:21:11.570Z,10.29
2023-05-21T02:23:38.576Z,10.33
2023-05-21T02:26:05.603Z,10.36
2023-05-21T02:28:32.834Z,10.40
2023-05-21T02:30:59.737Z,10.42
2023-05-21T02:33:26.689Z,10.43
2023-05-21T02:35:53.603Z,10.44
2023-05-21T02:38:23.112Z,10.46
2023-05-21T02:40:53.630Z,10.48
2023-05-21T02:43:20.780Z,10.52
2023-05-21T02:45:47.947Z,10.52
2023-05-21T02:48:15.094Z,10.52
2023-05-21T02:50:41.875Z,10.54
2023-05-21T02:53:08.653Z,10.55
2023-05-21T02:55:35.834Z,10.59
2023-05-21T02:58:02.883Z,10.62
2023-05-21T03:00:29.624Z,10.64
2023-05-21T03:02:56.765Z,10.63
2023-05-21T03:05:24.450Z,10.63
2023-05-21T03:07:51.495Z,10.63
2023-05-21T03:10:18.395Z,10.67
2023-05-21T03:12:45.660Z,10.69
2023-05-21T03:15:14.900Z,10.73
2023-05-21T03:17:44.819Z,10.73
2023-05-21T03:20:16.506Z,10.73
2023-05-21T03:22:44.838Z,10.72
2023-05-21T03:25:12.697Z,10.69
2023-05-21T03:27:40.037Z,10.65
2023-05-21T03:30:07.463Z,10.64
2023-05-21T03:32:37.812Z,10.61
2023-05-21T03:35:05.315Z,10.60
2023-05-21T03:37:32.130Z,10.59
2023-05-21T03:39:58.887Z,10.57
2023-05-21T03:42:25.767Z,10.59
2023-05-21T03:44:52.569Z,10.63
2023-05-21T03:47:19.348Z,10.66
2023-05-21T03:49:46.260Z,10.69
2023-05-21T03:52:13.071Z,10.73
2023-05-21T03:54:39.867Z,10.77
2023-05-21T03:57:06.814Z,10.79
2023-05-21T03:59:33.608Z,10.80
2023-05-21T04:02:00.480Z,10.81
2023-05-21T04:04:29.326Z,10.80
2023-05-21T04:06:56.239Z,10.79
2023-05-21T04:09:23.153Z,10.78
2023-05-21T04:11:49.935Z,10.79
2023-05-21T04:14:16.697Z,10.81
2023-05-21T04:16:44.250Z,10.80
2023-05-21T04:19:11.061Z,10.78
2023-05-21T04:21:37.855Z,10.75
2023-05-21T04:24:04.640Z,10.77
2023-05-21T04:26:34.020Z,10.77
2023-05-21T04:29:03.825Z,10.76
2023-05-21T04:31:33.484Z,10.80
2023-05-21T04:34:00.327Z,10.82
2023-05-21T04:36:29.119Z,10.85
2023-05-21T04:38:56.079Z,10.86
2023-05-21T04:41:22.918Z,10.85
2023-05-21T04:43:49.696Z,10.84
2023-05-21T04:46:16.698Z,10.85
2023-05-21T04:48:45.149Z,10.89
2023-05-21T04:51:11.968Z,10.92
2023-05-21T04:53:38.913Z,10.98
2023-05-21T04:56:07.331Z,11.04
2023-05-21T04:58:34.304Z,11.11
2023-05-21T05:01:03.345Z,11.15
2023-05-21T05:03:30.361Z,11.16
2023-05-21T05:05:57.405Z,11.16
2023-05-21T05:08:24.222Z,11.16
2023-05-21T05:10:50.986Z,11.17
2023-05-21T05:13:17.750Z,11.21
2023-05-21T05:15:44.489Z,11.27
2023-05-21T05:18:12.101Z,11.26
2023-05-21T05:20:38.970Z,11.23
2023-05-21T05:23:05.888Z,11.20
2023-05-21T05:25:33.072Z,11.21
2023-05-21T05:27:59.954Z,11.19
2023-05-21T05:30:26.863Z,11.18
2023-05-21T05:32:53.930Z,11.13
2023-05-21T05:35:20.804Z,11.12
2023-05-21T05:37:47.626Z,11.11
2023-05-21T05:40:14.650Z,11.13
2023-05-21T05:42:41.496Z,11.14
2023-05-21T05:45:08.813Z,11.15
2023-05-21T05:47:35.752Z,11.20
2023-05-21T05:50:02.625Z,11.34
2023-05-21T05:52:30.795Z,11.53
2023-05-21T05:54:57.572Z,11.64
2023-05-21T05:57:24.301Z,11.75
2023-05-21T05:59:51.043Z,11.84
2023-05-21T06:02:17.956Z,11.91
2023-05-21T06:04:44.840Z,12.00
2023-05-21T06:07:11.630Z,12.11
2023-05-21T06:09:39.000Z,12.19
2023-05-21T06:12:07.146Z,12.24
2023-05-21T06:14:33.951Z,12.23
2023-05-21T06:17:00.740Z,12.30
2023-05-21T06:19:27.613Z,12.39
2023-05-21T06:21:54.429Z,12.46
2023-05-21T06:24:21.310Z,12.60
2023-05-21T06:26:48.049Z,12.72
2023-05-21T06:29:15.589Z,12.76
2023-05-21T06:31:42.750Z,12.76
2023-05-21T06:34:10.735Z,12.69
2023-05-21T06:36:37.878Z,12.59
2023-05-21T06:39:04.647Z,12.47
2023-05-21T06:41:31.491Z,12.41
2023-05-21T06:43:58.260Z,12.37
2023-05-21T06:46:25.216Z,12.34
2023-05-21T06:48:52.115Z,12.33
2023-05-21T06:51:18.904Z,12.31
2023-05-21T06:53:45.717Z,12.28
2023-05-21T06:56:13.111Z,12.28
2023-05-21T06:58:42.012Z,12.26
2023-05-21T07:01:08.862Z,12.32
2023-05-21T07:03:38.659Z,12.39
2023-05-21T07:06:05.571Z,12.50
2023-05-21T07:08:32.351Z,12.65
2023-05-21T07:10:59.230Z,12.81
2023-05-21T07:13:26.101Z,12.92
2023-05-21T07:15:52.849Z,12.98
2023-05-21T07:18:19.718Z,12.99
2023-05-21T07:20:46.461Z,12.96
2023-05-21T07:23:13.218Z,13.02
2023-05-21T07:25:40.039Z,13.07
2023-05-21T07:28:06.943Z,13.19
2023-05-21T07:30:33.900Z,13.26
2023-05-21T07:33:00.972Z,13.33
2023-05-21T07:35:27.750Z,13.46
2023-05-21T07:37:54.691Z,13.55
2023-05-21T07:40:21.606Z,13.61
2023-05-21T07:42:48.360Z,13.72
2023-05-21T07:45:15.276Z,13.83
2023-05-21T07:47:42.807Z,13.86
2023-05-21T07:50:10.401Z,13.99
2023-05-21T07:52:37.240Z,14.08
2023-05-21T07:55:04.441Z,14.16
2023-05-21T07:57:31.361Z,14.17
2023-05-21T07:59:58.560Z,14.15
2023-05-21T08:02:25.686Z,14.14
2023-05-21T08:04:52.689Z,14.28
2023-05-21T08:07:21.535Z,14.49
2023-05-21T08:09:48.378Z,14.61
2023-05-21T08:12:16.119Z,14.70
2023-05-21T08:14:43.074Z,14.85
2023-05-21T08:17:11.399Z,14.98
2023-05-21T08:19:38.519Z,15.10
2023-05-21T08:22:06.700Z,15.13
2023-05-21T08:24:33.656Z,15.11
2023-05-21T08:27:00.547Z,15.22
2023-05-21T08:29:27.435Z,15.35
2023-05-21T08:31:54.425Z,15.63
2023-05-21T08:34:21.345Z,15.84
2023-05-21T08:36:49.956Z,16.02
2023-05-21T08:39:16.822Z,16.07
2023-05-21T08:41:49.621Z,16.05
2023-05-21T08:44:20.533Z,16.05
2023-05-21T08:46:50.141Z,15.96
2023-05-21T08:49:18.793Z,15.87
2023-05-21T08:51:47.031Z,15.89
2023-05-21T08:54:14.209Z,15.69
2023-05-21T08:56:47.099Z,15.59
2023-05-21T08:59:15.364Z,15.52
2023-05-21T09:01:43.623Z,15.57
2023-05-21T09:06:46.960Z,15.63
2023-05-21T09:09:42.196Z,15.84
2023-05-21T09:12:09.056Z,15.65
2023-05-21T09:14:37.405Z,15.64
2023-05-21T09:17:04.394Z,15.56
2023-05-21T09:19:32.319Z,15.42
2023-05-21T09:22:05.990Z,15.40
2023-05-21T09:24:35.708Z,15.22
2023-05-21T09:27:06.469Z,15.07
2023-05-21T09:29:34.573Z,14.96
2023-05-21T09:32:07.026Z,14.95
2023-05-21T09:34:37.253Z,14.87
2023-05-21T09:37:06.555Z,14.81
2023-05-21T09:39:36.074Z,14.87
2023-05-21T09:42:03.011Z,14.88
2023-05-21T09:44:29.798Z,14.93
2023-05-21T09:46:59.689Z,15.01
2023-05-21T09:49:26.798Z,14.98
2023-05-21T09:51:59.552Z,15.10
2023-05-21T09:54:32.270Z,15.12
2023-05-21T09:57:01.748Z,14.95
2023-05-21T09:59:39.330Z,14.99
2023-05-21T10:02:23.562Z,15.00
2023-05-21T10:04:52.984Z,15.05
2023-05-21T10:07:25.972Z,15.00
2023-05-21T10:09:58.316Z,14.99
2023-05-21T10:12:26.091Z,14.83
2023-05-21T10:15:01.364Z,14.86
2023-05-21T10:17:31.198Z,15.05
2023-05-21T10:19:59.811Z,15.79
2023-05-21T10:22:27.525Z,16.94
2023-05-21T10:24:54.801Z,18.05
2023-05-21T10:27:23.047Z,18.10
2023-05-21T10:29:50.826Z,18.02
2023-05-21T10:32:18.020Z,18.46
2023-05-21T10:34:46.992Z,19.26
2023-05-21T10:37:14.345Z,19.44
2023-05-21T10:39:43.442Z,19.05
2023-05-21T10:42:20.274Z,18.31
2023-05-21T10:45:00.600Z,17.70
2023-05-21T10:48:12.753Z,17.41
2023-05-21T10:51:05.535Z,18.31
2023-05-21T10:53:51.253Z,19.89
2023-05-21T10:56:24.918Z,20.67
2023-05-21T10:59:22.340Z,21.35
2023-05-21T11:01:53.050Z,21.42
2023-05-21T11:04:26.422Z,21.60
2023-05-21T11:06:53.357Z,21.22
2023-05-21T11:09:20.474Z,20.28
2023-05-21T11:11:51.864Z,19.71
2023-05-21T11:14:42.985Z,19.19
2023-05-21T11:17:09.769Z,18.91
2023-05-21T11:19:41.593Z,19.30
2023-05-21T11:22:09.490Z,20.00
2023-05-21T11:24:41.403Z,19.64
2023-05-21T11:27:08.767Z,19.08
2023-05-21T11:29:44.514Z,18.83
2023-05-21T11:32:13.575Z,18.01
2023-05-21T11:34:47.953Z,17.76
2023-05-21T11:37:18.233Z,17.38
2023-05-21T11:39:45.859Z,17.11
2023-05-21T11:42:13.207Z,17.55
2023-05-21T11:44:48.086Z,18.31
2023-05-21T11:47:17.877Z,18.30
2023-05-21T11:49:46.014Z,17.69
2023-05-21T11:52:14.449Z,17.16
2023-05-21T11:54:46.544Z,16.73
2023-05-21T11:57:17.810Z,16.29
2023-05-21T11:59:54.258Z,16.34
2023-05-21T12:02:22.466Z,16.09
2023-05-21T12:04:50.976Z,15.87
2023-05-21T12:07:19.365Z,15.59
2023-05-21T12:09:48.292Z,15.45
2023-05-21T12:12:17.021Z,15.39
2023-05-21T12:14:46.314Z,15.41
2023-05-21T12:17:15.285Z,15.41
2023-05-21T12:19:42.891Z,15.39
2023-05-21T12:22:10.674Z,15.28
2023-05-21T12:24:38.147Z,15.10
2023-05-21T12:27:10.763Z,14.99
2023-05-21T12:29:38.822Z,15.01
2023-05-21T12:32:08.838Z,15.05
2023-05-21T12:34:54.697Z,15.16
2023-05-21T12:37:22.759Z,14.90
2023-05-21T12:39:51.663Z,14.85
2023-05-21T12:42:35.378Z,14.92
2023-05-21T12:45:08.717Z,14.97
2023-05-21T12:47:35.928Z,15.24
2023-05-21T12:50:11.866Z,15.57
2023-05-21T12:52:40.518Z,15.78
2023-05-21T12:55:09.564Z,16.18
2023-05-21T12:57:38.973Z,16.58
2023-05-21T13:00:07.344Z,17.07
2023-05-21T13:02:36.266Z,17.54
2023-05-21T13:05:07.809Z,18.34
2023-05-21T13:07:39.439Z,19.57
2023-05-21T13:10:07.056Z,20.85
2023-05-21T13:12:34.524Z,20.77
2023-05-21T13:15:04.456Z,21.08
2023-05-21T13:17:34.606Z,21.08
2023-05-21T13:20:12.517Z,21.33
2023-05-21T13:22:45.176Z,20.25
2023-05-21T13:25:15.592Z,19.41
2023-05-21T13:27:43.601Z,18.40
2023-05-21T13:30:14.338Z,17.22
2023-05-21T13:32:42.419Z,16.26
2023-05-21T13:35:13.131Z,15.64
2023-05-21T13:37:40.935Z,15.27
2023-05-21T13:40:11.308Z,15.27
2023-05-21T13:42:38.912Z,15.36
2023-05-21T13:45:07.424Z,15.48
2023-05-21T13:47:37.485Z,15.78
2023-05-21T13:50:06.742Z,16.38
2023-05-21T13:52:33.622Z,17.19
2023-05-21T13:55:00.419Z,17.62
2023-05-21T13:57:30.667Z,17.72
2023-05-21T13:59:58.420Z,17.54
2023-05-21T14:02:25.703Z,17.20
2023-05-21T14:04:52.709Z,16.98
2023-05-21T14:07:19.488Z,16.99
2023-05-21T14:09:47.497Z,16.92
2023-05-21T14:12:14.383Z,16.90
2023-05-21T14:14:42.136Z,16.81
2023-05-21T14:17:09.051Z,16.73
2023-05-21T14:19:36.116Z,16.70
2023-05-21T14:22:02.998Z,17.11
2023-05-21T14:24:29.799Z,18.33
2023-05-21T14:26:56.566Z,19.72
2023-05-21T14:29:23.388Z,20.88
2023-05-21T14:31:50.224Z,21.69
2023-05-21T14:34:17.093Z,21.89
2023-05-21T14:36:43.933Z,21.99
2023-05-21T14:39:10.849Z,22.28
2023-05-21T14:41:39.764Z,21.73
2023-05-21T14:44:06.843Z,20.81
2023-05-21T14:46:33.935Z,20.38
2023-05-21T14:49:01.066Z,19.91
2023-05-21T14:51:28.175Z,19.11
2023-05-21T14:53:57.300Z,18.41
2023-05-21T14:56:27.258Z,17.87
2023-05-21T14:58:54.337Z,17.59
2023-05-21T15:01:21.544Z,17.36
2023-05-21T15:03:48.540Z,17.10
2023-05-21T15:06:15.402Z,16.81
2023-05-21T15:08:42.421Z,16.65
2023-05-21T15:11:10.044Z,16.53
2023-05-21T15:13:36.970Z,16.44
2023-05-21T15:16:04.137Z,16.43
2023-05-21T15:18:31.067Z,16.53
2023-05-21T15:20:58.375Z,16.65
2023-05-21T15:23:25.564Z,16.69
2023-05-21T15:25:52.378Z,16.75
2023-05-21T15:28:19.895Z,16.78
2023-05-21T15:30:46.745Z,16.70
2023-05-21T15:33:13.542Z,16.58
2023-05-21T15:35:41.098Z,16.45
2023-05-21T15:38:08.302Z,16.29
2023-05-21T15:40:35.086Z,16.25
2023-05-21T15:43:01.955Z,16.21
2023-05-21T15:45:28.851Z,16.19
2023-05-21T15:47:55.908Z,16.09
2023-05-21T15:50:22.701Z,16.12
2023-05-21T15:52:51.038Z,16.10
2023-05-21T15:55:20.105Z,16.00
2023-05-21T15:57:47.001Z,15.90
2023-05-21T16:00:15.245Z,15.88
2023-05-21T16:02:42.172Z,15.79
2023-05-21T16:05:09.576Z,15.79
2023-05-21T16:07:38.163Z,15.76
2023-05-21T16:10:06.447Z,15.87
2023-05-21T16:12:33.260Z,15.91
2023-05-21T16:15:00.079Z,15.91
2023-05-21T16:17:26.914Z,15.90
2023-05-21T16:19:53.746Z,15.90
2023-05-21T16:22:20.837Z,15.84
2023-05-21T16:24:48.042Z,15.80
2023-05-21T16:27:14.849Z,15.78
2023-05-21T16:29:41.905Z,15.70
2023-05-21T16:32:09.800Z,15.62
2023-05-21T16:34:36.727Z,15.55
2023-05-21T16:37:03.683Z,15.47
2023-05-21T16:39:30.607Z,15.37
2023-05-21T16:41:59.679Z,15.32
2023-05-21T16:44:27.350Z,15.25
2023-05-21T16:46:54.398Z,15.18
2023-05-21T16:49:21.230Z,15.13
2023-05-21T16:51:48.115Z,15.12
2023-05-21T16:54:14.956Z,15.08
2023-05-21T16:56:41.842Z,15.03
2023-05-21T16:59:08.675Z,14.97
2023-05-21T17:01:35.557Z,14.88
2023-05-21T17:04:02.785Z,14.81
2023-05-21T17:06:29.683Z,14.80
2023-05-21T17:08:56.629Z,14.77
2023-05-21T17:11:23.433Z,14.69
2023-05-21T17:13:50.293Z,14.65
2023-05-21T17:16:19.799Z,14.63
2023-05-21T17:18:46.692Z,14.55
2023-05-21T17:21:13.796Z,14.49
2023-05-21T17:23:42.861Z,14.42
2023-05-21T17:26:12.694Z,14.36
2023-05-21T17:28:39.503Z,14.25
2023-05-21T17:31:08.271Z,14.20
2023-05-21T17:33:35.120Z,14.12
2023-05-21T17:36:03.153Z,13.98
2023-05-21T17:38:30.040Z,13.87
2023-05-21T17:40:59.055Z,13.79
2023-05-21T17:43:27.646Z,13.71
2023-05-21T17:45:54.652Z,13.65
2023-05-21T17:48:21.572Z,13.54
2023-05-21T17:50:48.513Z,13.44
2023-05-21T17:53:15.959Z,13.33
2023-05-21T17:55:42.722Z,13.25
2023-05-21T17:58:10.131Z,13.17
2023-05-21T18:00:37.120Z,13.10
2023-05-21T18:03:04.658Z,13.02
2023-05-21T18:05:31.568Z,12.97
2023-05-21T18:08:01.240Z,12.93
2023-05-21T18:10:28.292Z,12.83
2023-05-21T18:12:55.054Z,12.76
2023-05-21T18:15:21.907Z,12.73
2023-05-21T18:17:48.794Z,12.66
2023-05-21T18:20:15.829Z,12.61
2023-05-21T18:22:42.664Z,12.55
2023-05-21T18:25:09.787Z,12.49
2023-05-21T18:27:36.934Z,12.43
2023-05-21T18:30:06.383Z,12.39
2023-05-21T18:32:34.558Z,12.38
2023-05-21T18:35:01.397Z,12.33
2023-05-21T18:37:29.275Z,12.34
2023-05-21T18:39:56.085Z,12.28
2023-05-21T18:42:22.868Z,12.21
2023-05-21T18:44:52.670Z,12.19
2023-05-21T18:47:19.577Z,12.09
2023-05-21T18:49:46.396Z,12.00
2023-05-21T18:52:13.748Z,11.92
2023-05-21T18:54:40.623Z,11.87
2023-05-21T18:57:07.385Z,11.84
2023-05-21T18:59:34.154Z,11.79
2023-05-21T19:02:01.154Z,11.76
2023-05-21T19:04:28.708Z,11.70
2023-05-21T19:06:55.972Z,11.62
2023-05-21T19:09:22.780Z,11.57
2023-05-21T19:11:50.705Z,11.53
2023-05-21T19:14:17.559Z,11.48
2023-05-21T19:16:45.855Z,11.44
2023-05-21T19:19:12.804Z,11.42
2023-05-21T19:21:40.090Z,11.35
2023-05-21T19:24:07.325Z,11.29
2023-05-21T19:26:37.339Z,11.27
2023-05-21T19:29:04.175Z,11.19
2023-05-21T19:31:31.014Z,11.16
2023-05-21T19:33:57.837Z,11.14
2023-05-21T19:36:24.755Z,11.11
2023-05-21T19:38:51.689Z,11.05
2023-05-21T19:41:19.974Z,11.00
2023-05-21T19:43:46.813Z,10.96
2023-05-21T19:46:17.221Z,10.93
2023-05-21T19:48:46.154Z,10.93
2023-05-21T19:51:13.482Z,10.89
2023-05-21T19:53:40.346Z,10.84
2023-05-21T19:56:07.639Z,10.80
2023-05-21T19:58:34.418Z,10.73
2023-05-21T20:01:01.226Z,10.67
2023-05-21T20:03:32.105Z,10.63
2023-05-21T20:05:59.117Z,10.61
2023-05-21T20:08:26.045Z,10.62
2023-05-21T20:10:53.092Z,10.60
2023-05-21T20:13:21.694Z,10.62
2023-05-21T20:15:49.899Z,10.57
2023-05-21T20:18:17.191Z,10.56
2023-05-21T20:20:44.087Z,10.57
2023-05-21T20:23:10.973Z,10.58
2023-05-21T20:25:37.776Z,10.58
2023-05-21T20:28:05.477Z,10.57
2023-05-21T20:30:34.025Z,10.56
2023-05-21T20:33:02.216Z,10.49
2023-05-21T20:35:29.528Z,10.46
2023-05-21T20:37:56.323Z,10.46
2023-05-21T20:40:23.119Z,10.44
2023-05-21T20:42:53.579Z,10.42
2023-05-21T20:45:21.991Z,10.40
2023-05-21T20:47:50.107Z,10.35
2023-05-21T20:50:25.882Z,10.30
2023-05-21T20:52:52.699Z,10.24
2023-05-21T20:55:20.872Z,10.18
2023-05-21T20:57:47.667Z,10.15
2023-05-21T21:00:16.209Z,10.15
2023-05-21T21:02:43.768Z,10.20
2023-05-21T21:05:11.463Z,10.28
2023-05-21T21:07:38.481Z,10.32
2023-05-21T21:10:05.971Z,10.37
2023-05-21T21:12:32.804Z,10.44
2023-05-21T21:14:59.598Z,10.48
2023-05-21T21:17:26.400Z,10.50
2023-05-21T21:19:53.588Z,10.55
2023-05-21T21:22:21.061Z,10.56
2023-05-21T21:24:48.006Z,10.56
2023-05-21T21:27:17.588Z,10.60
2023-05-21T21:29:45.747Z,10.57
2023-05-21T21:32:12.759Z,10.55
2023-05-21T21:34:39.580Z,10.55
2023-05-21T21:37:06.464Z,10.54
2023-05-21T21:39:33.728Z,10.46
2023-05-21T21:42:00.847Z,10.41
2023-05-21T21:44:27.835Z,10.42
2023-05-21T21:46:54.604Z,10.43
2023-05-21T21:49:21.434Z,10.45
2023-05-21T21:51:48.470Z,10.48
2023-05-21T21:54:15.253Z,10.49
2023-05-21T21:56:42.124Z,10.44
2023-05-21T21:59:08.925Z,10.40
2023-05-21T22:01:36.060Z,10.36
2023-05-21T22:04:02.980Z,10.39
2023-05-21T22:06:29.992Z,10.41
2023-05-21T22:08:56.811Z,10.47
2023-05-21T22:11:23.698Z,10.53
2023-05-21T22:13:50.507Z,10.56
2023-05-21T22:16:17.310Z,10.56
2023-05-21T22:18:44.218Z,10.56
2023-05-21T22:21:14.299Z,10.54
2023-05-21T22:23:41.543Z,10.56
2023-05-21T22:26:09.666Z,10.52
2023-05-21T22:28:36.496Z,10.45
2023-05-21T22:31:03.490Z,10.38
2023-05-21T22:33:30.540Z,10.35
2023-05-21T22:35:58.263Z,10.35
2023-05-21T22:38:25.699Z,10.36
2023-05-21T22:40:52.536Z,10.34
2023-05-21T22:43:19.429Z,10.31
2023-05-21T22:45:46.447Z,10.24
2023-05-21T22:48:14.413Z,10.17
2023-05-21T22:50:41.572Z,10.12
2023-05-21T22:53:08.488Z,10.08
2023-05-21T22:55:35.375Z,10.06
2023-05-21T22:58:02.188Z,10.05
2023-05-21T23:00:29.224Z,10.06
2023-05-21T23:02:56.322Z,10.03
2023-05-21T23:05:23.326Z,10.08
2023-05-21T23:07:50.143Z,10.11
2023-05-21T23:10:17.028Z,10.09
2023-05-21T23:12:43.848Z,10.07
2023-05-21T23:15:11.079Z,10.01
2023-05-21T23:17:38.315Z,9.97
2023-05-21T23:20:07.262Z,9.92
2023-05-21T23:22:34.606Z,9.89
2023-05-21T23:25:01.808Z,9.89
2023-05-21T23:27:30.557Z,9.89
2023-05-21T23:29:57.288Z,9.93
2023-05-21T23:32:24.425Z,9.94
2023-05-21T23:34:51.260Z,9.92
2023-05-21T23:37:18.871Z,9.90
2023-05-21T23:39:49.581Z,9.92
2023-05-21T23:42:17.424Z,9.97
2023-05-21T23:44:44.529Z,9.99
2023-05-21T23:47:11.403Z,10.03
2023-05-21T23:49:38.993Z,10.03
2023-05-21T23:52:06.267Z,10.02
2023-05-21T23:54:33.209Z,10.04
2023-05-21T23:57:00.079Z,10.09
2023-05-21T23:59:26.869Z,10.12
